Time;durP1;ratioP1;P1;durP2;ratioP2;P2;SDS_P1;SDS_P2;PMS_P1;PMS_P2;Temp;Humidity;BMP_temperature;BMP_pressure;BME280_temperature;BME280_humidity;BME280_pressure;Samples;Min_cycle;Max_cycle;Signal;HPM_P1;HPM_P2
2022/01/05 00:00:33;;;;;;;11.52;2.20;;;;;;;2.06;94.06;98666.25;4902238;29;20040;-79
2022/01/05 00:02:58;;;;;;;5.93;2.30;;;;;;;2.12;93.66;98664.69;4919176;29;20024;-79
2022/01/05 00:05:23;;;;;;;6.23;1.87;;;;;;;2.19;93.54;98666.34;4919194;29;20051;-79
2022/01/05 00:07:49;;;;;;;5.72;2.38;;;;;;;2.20;93.76;98660.03;4919426;29;20052;-79
2022/01/05 00:10:15;;;;;;;8.40;2.97;;;;;;;2.15;93.85;98657.13;4919399;29;20036;-79
2022/01/05 00:12:40;;;;;;;5.60;2.15;;;;;;;2.20;93.62;98667.16;4919335;29;20040;-80
2022/01/05 00:15:06;;;;;;;5.32;1.90;;;;;;;2.16;93.47;98666.72;4919218;29;20126;-79
2022/01/05 00:17:31;;;;;;;4.45;2.05;;;;;;;2.22;93.61;98662.47;4918817;29;20035;-78
2022/01/05 00:19:57;;;;;;;6.10;2.72;;;;;;;2.20;94.03;98667.16;4918778;29;20040;-78
2022/01/05 00:22:22;;;;;;;8.10;2.40;;;;;;;2.17;93.18;98673.69;4919040;29;20079;-78
2022/01/05 00:24:48;;;;;;;4.40;2.10;;;;;;;2.15;93.42;98680.25;4918304;29;20279;-79
2022/01/05 00:27:13;;;;;;;5.93;2.60;;;;;;;2.11;93.22;98684.28;4901600;29;20535;-78
2022/01/05 00:29:39;;;;;;;7.68;2.45;;;;;;;2.08;93.64;98682.84;4918179;29;20475;-80
2022/01/05 00:32:05;;;;;;;6.07;2.37;;;;;;;2.07;94.17;98683.84;4918046;29;20099;-79
2022/01/05 00:34:30;;;;;;;7.05;2.45;;;;;;;2.18;93.99;98679.81;4919328;29;20292;-79
2022/01/05 00:36:55;;;;;;;6.37;2.77;;;;;;;2.09;93.44;98668.53;4918322;29;20120;-77
2022/01/05 00:39:21;;;;;;;4.13;2.10;;;;;;;2.04;92.99;98671.75;4917697;29;20561;-77
2022/01/05 00:41:46;;;;;;;8.80;2.25;;;;;;;2.04;93.35;98673.59;4917832;29;20037;-77
2022/01/05 00:44:12;;;;;;;8.87;2.63;;;;;;;2.02;93.46;98668.47;4918026;29;20044;-78
2022/01/05 00:46:38;;;;;;;7.43;2.47;;;;;;;2.05;93.65;98669.94;4918021;29;20256;-77
2022/01/05 00:49:03;;;;;;;7.85;2.60;;;;;;;2.08;93.74;98674.88;4917879;29;20036;-78
2022/01/05 00:51:28;;;;;;;10.25;2.85;;;;;;;2.12;93.43;98677.97;4918318;29;20032;-78
2022/01/05 00:53:54;;;;;;;6.80;2.43;;;;;;;2.11;93.57;98674.47;4918782;29;20428;-78
2022/01/05 00:56:19;;;;;;;6.23;2.50;;;;;;;2.13;93.78;98675.13;4917885;29;20381;-78
2022/01/05 00:58:44;;;;;;;8.30;2.77;;;;;;;2.18;94.16;98674.50;4900430;29;20312;-77
2022/01/05 01:01:10;;;;;;;8.32;2.90;;;;;;;2.18;93.45;98674.50;4917511;29;20056;-77
2022/01/05 01:03:36;;;;;;;11.13;3.20;;;;;;;2.13;93.96;98668.97;4917605;29;20044;-77
2022/01/05 01:06:02;;;;;;;8.07;3.05;;;;;;;2.15;94.00;98678.38;4917275;29;20119;-77
2022/01/05 01:08:27;;;;;;;10.27;2.47;;;;;;;2.17;93.43;98676.34;4917436;29;20535;-77
2022/01/05 01:10:53;;;;;;;13.30;2.83;;;;;;;2.15;93.79;98683.69;4916736;29;20115;-77
2022/01/05 01:13:20;;;;;;;8.60;2.60;;;;;;;2.12;93.33;98680.63;4916727;29;20035;-77
2022/01/05 01:15:47;;;;;;;14.27;3.58;;;;;;;2.12;93.83;98696.56;4917086;29;20039;-77
2022/01/05 01:18:12;;;;;;;7.07;2.65;;;;;;;2.16;94.07;98697.78;4916723;29;20047;-77
2022/01/05 01:20:38;;;;;;;4.30;1.75;;;;;;;2.15;94.49;98699.63;4917005;29;20036;-77
2022/01/05 01:23:04;;;;;;;5.47;1.92;;;;;;;2.18;94.06;98703.75;4916953;29;20083;-77
2022/01/05 01:25:29;;;;;;;10.05;2.30;;;;;;;2.15;94.05;98699.63;4916665;29;20483;-77
2022/01/05 01:27:54;;;;;;;6.63;1.77;;;;;;;2.22;94.22;98705.81;4916822;29;20392;-77
2022/01/05 01:30:20;;;;;;;4.80;1.90;;;;;;;2.18;93.71;98704.56;4916739;29;20034;-77
2022/01/05 01:32:45;;;;;;;3.75;1.85;;;;;;;2.18;94.03;98701.91;4916852;29;20040;-77
2022/01/05 01:35:11;;;;;;;5.68;1.77;;;;;;;2.18;93.54;98709.88;4916828;29;20122;-77
2022/01/05 01:37:36;;;;;;;7.53;3.33;;;;;;;2.17;94.15;98699.44;4899847;29;20040;-77
2022/01/05 01:40:04;;;;;;;4.55;1.30;;;;;;;2.19;93.53;98700.06;4916647;29;20046;-77
2022/01/05 01:42:30;;;;;;;3.28;1.85;;;;;;;2.13;93.94;98708.84;4916572;29;20112;-77
2022/01/05 01:44:55;;;;;;;2.25;0.90;;;;;;;2.14;93.79;98705.16;4919819;29;20080;-77
2022/01/05 01:47:21;;;;;;;3.00;0.90;;;;;;;2.13;93.75;98712.31;4920354;29;20047;-77
2022/01/05 01:49:47;;;;;;;4.03;1.58;;;;;;;2.11;93.53;98716.16;4903322;29;20031;-77
2022/01/05 01:52:12;;;;;;;;;;;;;;;2.10;93.61;98715.34;4920321;29;20039;-77
2022/01/05 01:54:38;;;;;;;12.02;1.65;;;;;;;2.10;93.35;98712.69;4920316;29;20274;-77
2022/01/05 01:57:05;;;;;;;2.42;0.70;;;;;;;2.13;93.69;98711.50;4920110;29;20032;-77
2022/01/05 01:59:30;;;;;;;3.22;1.35;;;;;;;2.06;93.38;98714.09;4919805;29;20059;-77
2022/01/05 02:01:55;;;;;;;12.50;2.38;;;;;;;2.09;93.74;98719.00;4919990;29;20040;-77
2022/01/05 02:04:21;;;;;;;6.75;1.85;;;;;;;2.08;93.63;98720.03;4920067;29;20432;-77
2022/01/05 02:06:48;;;;;;;4.78;1.65;;;;;;;2.06;93.30;98722.88;4919642;29;20090;-77
2022/01/05 02:09:13;;;;;;;3.85;1.30;;;;;;;2.01;93.83;98719.97;4919617;29;20039;-77
2022/01/05 02:11:40;;;;;;;6.18;2.22;;;;;;;2.04;93.38;98727.56;4919907;29;20506;-77
2022/01/05 02:14:06;;;;;;;3.92;1.73;;;;;;;1.99;94.06;98727.28;4919710;29;20043;-76
2022/01/05 02:16:34;;;;;;;6.40;1.50;;;;;;;1.99;94.12;98723.81;4919495;29;20036;-77
2022/01/05 02:19:00;;;;;;;8.35;1.80;;;;;;;1.98;93.65;98728.31;4919758;29;20032;-76
2022/01/05 02:21:37;;;;;;;4.72;2.42;;;;;;;2.03;93.64;98735.72;4919393;29;20154;-76
2022/01/05 02:24:08;;;;;;;8.80;2.50;;;;;;;1.95;93.42;98727.91;4919327;29;20479;-76
2022/01/05 02:26:34;;;;;;;7.90;2.85;;;;;;;1.97;94.07;98726.66;4919305;29;20074;-77
2022/01/05 02:29:00;;;;;;;7.97;3.17;;;;;;;1.99;94.09;98723.81;4919649;29;20028;-77
2022/01/05 02:31:26;;;;;;;9.45;2.70;;;;;;;2.08;93.98;98739.44;4919563;29;20391;-76
2022/01/05 02:33:51;;;;;;;7.00;2.60;;;;;;;2.07;93.53;98737.81;4919223;29;20043;-76
2022/01/05 02:36:19;;;;;;;8.95;3.08;;;;;;;2.00;92.99;98739.56;4919373;29;20028;-76
2022/01/05 02:38:49;;;;;;;6.88;3.00;;;;;;;1.98;93.07;98741.59;4919658;29;20047;-76
2022/01/05 02:41:16;;;;;;;6.03;2.40;;;;;;;2.04;93.07;98738.19;4919266;29;20043;-76
2022/01/05 02:43:43;;;;;;;;;;;;;;;2.04;93.43;98740.00;4902804;29;20048;-76
2022/01/05 02:46:22;;;;;;;8.18;2.45;;;;;;;2.08;93.09;98741.28;4919583;29;19931;-76
2022/01/05 02:48:51;;;;;;;7.20;2.92;;;;;;;1.95;92.96;98744.66;4902224;29;20058;-76
2022/01/05 02:51:17;;;;;;;7.80;3.28;;;;;;;1.90;93.00;98747.03;4919003;29;20052;-76
2022/01/05 02:53:42;;;;;;;5.85;2.60;;;;;;;1.91;93.13;98748.69;4902000;29;20036;-77
2022/01/05 02:56:10;;;;;;;5.25;2.22;;;;;;;1.89;93.27;98748.06;4918677;29;20032;-77
2022/01/05 02:58:36;;;;;;;9.82;2.97;;;;;;;1.83;92.66;98745.31;4902125;29;20035;-76
2022/01/05 03:01:03;;;;;;;10.90;2.03;;;;;;;1.79;92.59;98744.09;4918980;29;20365;-76
2022/01/05 03:03:28;;;;;;;4.75;2.53;;;;;;;1.78;92.80;98766.34;4901954;29;20032;-76
2022/01/05 03:05:54;;;;;;;7.22;1.65;;;;;;;1.71;92.61;98768.91;4918953;29;20083;-76
2022/01/05 03:08:19;;;;;;;7.03;2.33;;;;;;;1.73;93.00;98773.03;4918730;29;20055;-76
2022/01/05 03:10:45;;;;;;;10.65;2.47;;;;;;;1.69;92.44;98771.75;4918721;29;20031;-76
2022/01/05 03:13:10;;;;;;;4.53;1.90;;;;;;;1.68;92.45;98771.94;4918564;29;20032;-76
2022/01/05 03:15:35;;;;;;;8.67;1.80;;;;;;;1.67;92.45;98784.41;4919125;29;20381;-76
2022/01/05 03:18:02;;;;;;;6.30;2.53;;;;;;;1.59;92.86;98787.19;4918989;29;20703;-77
2022/01/05 03:20:30;;;;;;;6.82;2.47;;;;;;;1.56;92.84;98786.72;4918633;29;20032;-77
2022/01/05 03:22:55;;;;;;;6.15;2.30;;;;;;;1.55;92.74;98790.38;4918524;29;20062;-76
2022/01/05 03:25:20;;;;;;;11.35;3.60;;;;;;;1.52;92.13;98799.53;4918507;29;20059;-76
2022/01/05 03:27:48;;;;;;;7.97;1.92;;;;;;;1.53;91.94;98792.41;4918294;29;20036;-76
2022/01/05 03:30:16;;;;;;;9.40;2.35;;;;;;;1.43;91.48;98794.53;4918476;29;20032;-76
2022/01/05 03:33:02;;;;;;;8.23;2.25;;;;;;;1.40;91.81;98806.34;4918403;29;20039;-76
2022/01/05 03:35:30;;;;;;;6.30;2.10;;;;;;;1.32;92.21;98809.09;4918028;29;20084;-76
2022/01/05 03:37:56;;;;;;;5.18;1.55;;;;;;;1.39;92.44;98810.00;4918022;29;20035;-76
2022/01/05 03:40:23;;;;;;;9.05;1.73;;;;;;;1.37;91.56;98818.16;4917997;29;20088;-76
2022/01/05 03:42:49;;;;;;;9.88;2.92;;;;;;;1.29;92.16;98817.41;4917911;29;20475;-76
2022/01/05 03:45:14;;;;;;;7.10;2.42;;;;;;;1.33;91.83;98824.00;4918114;29;20039;-76
2022/01/05 03:47:40;;;;;;;3.72;1.33;;;;;;;1.33;91.60;98822.19;4918220;29;20033;-76
2022/01/05 03:50:06;;;;;;;4.90;1.88;;;;;;;1.24;91.09;98831.25;4919534;29;20064;-75
2022/01/05 03:52:31;;;;;;;4.88;1.85;;;;;;;1.18;91.21;98834.63;4919245;29;20032;-75
2022/01/05 03:54:57;;;;;;;6.13;2.00;;;;;;;1.18;90.82;98841.78;4919207;29;20032;-76
2022/01/05 03:57:23;;;;;;;4.03;1.65;;;;;;;1.09;91.26;98843.69;4918831;29;20039;-75
2022/01/05 03:59:48;;;;;;;;;;;;;;;1.17;90.40;98840.94;4918527;29;20123;-75
2022/01/05 04:02:13;;;;;;;3.87;1.60;;;;;;;1.13;91.05;98836.19;4917850;29;20017;-75
2022/01/05 04:04:39;;;;;;;3.80;1.27;;;;;;;1.12;91.66;98839.84;4917871;29;20261;-75
2022/01/05 04:07:04;;;;;;;8.07;1.53;;;;;;;1.16;90.63;98841.13;4917218;29;20375;-76
2022/01/05 04:09:30;;;;;;;4.35;1.55;;;;;;;1.12;89.98;98850.44;4917546;29;20111;-75
2022/01/05 04:11:55;;;;;;;3.95;1.40;;;;;;;1.04;90.94;98852.22;4917732;29;20048;-75
2022/01/05 04:14:21;;;;;;;7.25;2.55;;;;;;;1.01;90.78;98859.69;4917691;29;20047;-75
2022/01/05 04:16:46;;;;;;;8.07;2.40;;;;;;;1.02;89.86;98864.81;4917850;29;20039;-75
2022/01/05 04:19:11;;;;;;;6.53;1.80;;;;;;;1.01;89.99;98863.19;4900559;29;20282;-75
2022/01/05 04:21:37;;;;;;;5.13;1.45;;;;;;;0.91;90.46;98870.56;4917826;29;20482;-76
2022/01/05 04:24:02;;;;;;;6.10;1.87;;;;;;;0.91;90.14;98883.81;4917182;29;20032;-75
2022/01/05 04:26:28;;;;;;;4.70;1.10;;;;;;;0.93;89.35;98880.97;4917490;29;20279;-76
2022/01/05 04:28:53;;;;;;;4.97;1.65;;;;;;;0.94;88.99;98883.47;4917396;29;20050;-75
2022/01/05 04:31:18;;;;;;;8.33;1.50;;;;;;;0.88;89.05;98881.56;4917232;29;20036;-75
2022/01/05 04:33:44;;;;;;;3.60;1.23;;;;;;;0.95;88.11;98884.28;4917092;29;20302;-75
2022/01/05 04:36:09;;;;;;;4.43;1.25;;;;;;;0.93;88.69;98897.72;4916976;29;20256;-75
2022/01/05 04:38:34;;;;;;;4.45;1.02;;;;;;;0.89;88.54;98895.63;4917072;29;20484;-75
2022/01/05 04:41:00;;;;;;;4.82;1.55;;;;;;;0.84;88.15;98900.66;4917481;29;20055;-75
2022/01/05 04:43:25;;;;;;;2.53;0.70;;;;;;;0.84;88.46;98887.38;4900293;29;20079;-75
2022/01/05 04:45:51;;;;;;;6.10;1.45;;;;;;;0.84;88.27;98893.50;4917410;29;20487;-75
2022/01/05 04:48:17;;;;;;;9.32;1.30;;;;;;;0.79;87.90;98895.88;4917093;29;20364;-75
2022/01/05 04:50:42;;;;;;;4.18;1.15;;;;;;;0.78;87.35;98891.56;4917158;29;20032;-75
2022/01/05 04:53:10;;;;;;;6.63;1.55;;;;;;;0.82;87.79;98889.38;4917105;29;20119;-75
2022/01/05 04:55:35;;;;;;;3.88;1.40;;;;;;;0.77;87.79;98897.88;4917083;29;20089;-75
2022/01/05 04:58:01;;;;;;;7.93;1.88;;;;;;;0.85;87.28;98902.28;4916964;29;20063;-75
2022/01/05 05:00:26;;;;;;;5.47;1.77;;;;;;;0.78;87.69;98899.53;4917019;29;20468;-75
2022/01/05 05:02:51;;;;;;;7.60;2.10;;;;;;;0.86;86.87;98896.81;4917041;29;20379;-76
2022/01/05 05:05:17;;;;;;;8.52;3.22;;;;;;;0.84;86.85;98896.16;4917104;29;20043;-75
2022/01/05 05:07:42;;;;;;;4.70;2.00;;;;;;;0.83;86.74;98893.69;4917282;29;20519;-75
2022/01/05 05:10:08;;;;;;;7.30;1.80;;;;;;;0.85;87.00;98889.88;4917940;29;20040;-75
2022/01/05 05:12:33;;;;;;;6.95;3.20;;;;;;;0.80;87.00;98897.53;4917050;29;20036;-76
2022/01/05 05:14:58;;;;;;;7.87;2.50;;;;;;;0.83;86.82;98899.00;4916661;29;20063;-75
2022/01/05 05:17:24;;;;;;;7.37;1.63;;;;;;;0.81;86.43;98901.81;4917676;29;20302;-75
2022/01/05 05:19:49;;;;;;;7.78;2.53;;;;;;;0.78;85.94;98911.97;4920496;29;20475;-76
2022/01/05 05:22:14;;;;;;;6.15;1.83;;;;;;;0.80;86.65;98907.31;4920478;29;20046;-75
2022/01/05 05:24:40;;;;;;;7.55;1.30;;;;;;;0.79;87.51;98911.78;4920707;29;20036;-75
2022/01/05 05:27:05;;;;;;;6.07;1.25;;;;;;;0.77;87.04;98915.59;4921643;29;20040;-76
2022/01/05 05:29:31;;;;;;;3.33;1.00;;;;;;;0.73;87.47;98907.19;4920357;29;20040;-76
2022/01/05 05:31:56;;;;;;;7.28;2.65;;;;;;;0.74;87.51;98903.53;4920147;29;20486;-77
2022/01/05 05:34:21;;;;;;;2.97;1.10;;;;;;;0.76;87.23;98914.78;4920486;29;20040;-77
2022/01/05 05:36:47;;;;;;;11.60;1.52;;;;;;;0.79;86.97;98917.09;4920174;29;20043;-77
2022/01/05 05:39:12;;;;;;;8.00;1.30;;;;;;;0.76;86.66;98917.44;4920576;29;20055;-76
2022/01/05 05:41:38;;;;;;;3.35;1.13;;;;;;;0.77;86.62;98912.97;4920409;29;20280;-76
2022/01/05 05:44:03;;;;;;;4.47;1.23;;;;;;;0.74;86.88;98900.88;4920238;29;20392;-77
2022/01/05 05:46:28;;;;;;;5.85;1.55;;;;;;;0.77;86.44;98905.81;4920514;29;20292;-76
2022/01/05 05:48:54;;;;;;;3.50;1.20;;;;;;;0.75;86.75;98902.53;4920245;29;20087;-77
2022/01/05 05:51:19;;;;;;;4.47;1.40;;;;;;;0.74;86.38;98911.47;4920127;29;20265;-77
2022/01/05 05:53:45;;;;;;;9.53;1.20;;;;;;;0.74;86.18;98906.19;4919819;29;20275;-76
2022/01/05 05:56:10;;;;;;;3.13;1.40;;;;;;;0.74;86.13;98902.72;4920022;29;20040;-75
2022/01/05 05:58:35;;;;;;;3.03;1.20;;;;;;;0.74;86.30;98908.00;4919922;29;20040;-76
2022/01/05 06:01:01;;;;;;;4.80;1.73;;;;;;;0.72;86.57;98910.84;4919828;29;20036;-75
2022/01/05 06:03:26;;;;;;;3.93;1.93;;;;;;;0.76;86.84;98912.13;4919738;29;20447;-75
2022/01/05 06:05:51;;;;;;;7.33;2.77;;;;;;;0.74;86.31;98908.00;4919449;29;20656;-75
2022/01/05 06:08:17;;;;;;;7.10;2.13;;;;;;;0.73;86.58;98914.31;4919854;29;20310;-75
2022/01/05 06:10:42;;;;;;;7.07;2.37;;;;;;;0.76;86.33;98916.59;4919692;29;20387;-75
2022/01/05 06:13:07;;;;;;;6.63;1.80;;;;;;;0.74;86.68;98916.78;4902631;29;20032;-75
2022/01/05 06:15:33;;;;;;;8.40;2.60;;;;;;;0.77;86.36;98911.13;4919715;29;20319;-76
2022/01/05 06:17:58;;;;;;;6.07;2.42;;;;;;;0.75;87.00;98915.78;4919837;29;20272;-76
2022/01/05 06:20:23;;;;;;;3.80;1.67;;;;;;;0.86;87.28;98928.63;4919509;29;20040;-76
2022/01/05 06:22:49;;;;;;;4.57;1.57;;;;;;;0.78;86.21;98925.22;4919424;29;20024;-77
2022/01/05 06:25:14;;;;;;;5.30;1.60;;;;;;;0.80;86.48;98926.69;4919399;29;20589;-76
2022/01/05 06:27:40;;;;;;;12.98;2.05;;;;;;;0.77;86.59;98932.34;4902453;29;20502;-76
2022/01/05 06:30:08;;;;;;;7.00;2.40;;;;;;;0.82;86.22;98945.91;4918444;29;20399;-77
2022/01/05 06:32:35;;;;;;;10.98;4.63;;;;;;;0.79;85.81;98948.06;4919184;29;20531;-76
2022/01/05 06:35:03;;;;;;;9.55;2.85;;;;;;;0.78;86.30;98943.78;4918884;29;20106;-76
2022/01/05 06:37:28;;;;;;;4.55;1.70;;;;;;;0.79;86.01;98948.06;4902175;29;20064;-74
2022/01/05 06:39:53;;;;;;;7.18;2.20;;;;;;;0.81;85.96;98949.53;4918953;29;20068;-75
2022/01/05 06:42:19;;;;;;;6.22;1.63;;;;;;;0.92;85.72;98937.69;4919118;29;20487;-74
2022/01/05 06:44:44;;;;;;;8.40;2.05;;;;;;;0.81;86.00;98951.38;4919018;29;20028;-75
2022/01/05 06:47:10;;;;;;;4.17;1.50;;;;;;;0.82;85.93;98961.81;4919170;29;20040;-75
2022/01/05 06:49:35;;;;;;;11.60;2.75;;;;;;;0.84;86.01;98953.69;4919139;29;20299;-76
2022/01/05 06:52:01;;;;;;;7.47;1.30;;;;;;;0.82;86.13;98935.28;4919419;29;20087;-74
2022/01/05 06:54:26;;;;;;;9.60;1.33;;;;;;;0.83;85.55;98954.69;4918865;29;20032;-75
2022/01/05 06:56:52;;;;;;;3.20;1.20;;;;;;;0.84;85.60;98957.16;4901933;29;20565;-75
2022/01/05 06:59:17;;;;;;;5.63;2.60;;;;;;;0.87;85.61;98963.94;4918712;29;20044;-75
2022/01/05 07:01:42;;;;;;;5.27;1.63;;;;;;;0.85;85.18;98958.81;4918394;29;20040;-75
2022/01/05 07:04:07;;;;;;;1.97;0.90;;;;;;;0.82;85.22;98959.16;4901778;29;20657;-75
2022/01/05 07:06:33;;;;;;;5.13;1.27;;;;;;;0.87;85.48;98961.28;4901576;29;20055;-75
2022/01/05 07:08:58;;;;;;;4.95;1.60;;;;;;;0.82;85.20;98959.16;4918706;29;20111;-75
2022/01/05 07:11:23;;;;;;;4.40;1.00;;;;;;;0.83;85.74;98962.63;4918390;29;20039;-75
2022/01/05 07:13:49;;;;;;;3.22;1.17;;;;;;;0.80;85.67;98961.16;4918833;29;20319;-75
2022/01/05 07:16:14;;;;;;;3.10;1.27;;;;;;;0.79;85.82;98964.81;4918460;29;20036;-75
2022/01/05 07:18:41;;;;;;;7.03;1.27;;;;;;;0.80;85.45;98958.50;4918860;29;20036;-76
2022/01/05 07:21:07;;;;;;;4.80;1.92;;;;;;;0.80;85.34;98979.72;4918477;29;20047;-75
2022/01/05 07:23:32;;;;;;;4.72;1.20;;;;;;;0.80;85.51;98976.22;4918308;29;20032;-75
2022/01/05 07:25:58;;;;;;;7.63;1.50;;;;;;;0.81;85.76;98976.06;4918293;29;20467;-74
2022/01/05 07:28:23;;;;;;;5.50;1.57;;;;;;;0.81;85.59;98968.09;4918074;29;20408;-75
2022/01/05 07:30:48;;;;;;;12.20;2.00;;;;;;;0.82;85.39;98969.75;4918093;29;20046;-75
2022/01/05 07:33:14;;;;;;;6.65;1.70;;;;;;;0.85;85.37;98977.34;4918279;29;20044;-75
2022/01/05 07:35:39;;;;;;;6.33;2.00;;;;;;;0.94;86.44;98975.44;4918173;29;20067;-76
2022/01/05 07:38:05;;;;;;;5.57;1.88;;;;;;;0.89;85.24;98976.00;4918788;29;20296;-75
2022/01/05 07:40:30;;;;;;;4.07;1.25;;;;;;;0.97;85.70;98967.97;4919576;29;20040;-74
2022/01/05 07:42:55;;;;;;;14.90;1.73;;;;;;;1.03;84.96;98975.22;4917776;29;20036;-75
2022/01/05 07:45:21;;;;;;;5.47;1.80;;;;;;;1.09;85.25;98988.75;4918277;29;20075;-75
2022/01/05 07:47:46;;;;;;;3.65;1.33;;;;;;;1.18;85.56;99000.94;4917856;29;20028;-75
2022/01/05 07:50:14;;;;;;;10.48;2.30;;;;;;;1.18;84.49;98998.28;4917919;29;20040;-74
2022/01/05 07:52:41;;;;;;;3.25;1.17;;;;;;;1.17;85.68;99000.13;4918470;29;20530;-75
2022/01/05 07:55:08;;;;;;;4.30;1.20;;;;;;;1.13;84.53;99009.44;4917927;29;20087;-74
2022/01/05 07:57:34;;;;;;;5.65;1.08;;;;;;;1.09;85.28;99007.31;4917878;29;20119;-75
2022/01/05 07:59:59;;;;;;;3.92;1.38;;;;;;;1.12;84.70;99012.25;4900878;29;20040;-75
2022/01/05 08:02:25;;;;;;;8.27;1.70;;;;;;;1.14;85.17;99027.00;4917590;29;20047;-74
2022/01/05 08:04:50;;;;;;;6.43;2.05;;;;;;;1.18;85.04;99038.09;4900836;29;20067;-75
2022/01/05 08:07:16;;;;;;;6.93;1.35;;;;;;;1.14;85.21;99021.69;4917168;29;20052;-74
2022/01/05 08:09:41;;;;;;;4.93;1.42;;;;;;;1.11;85.47;99014.09;4917463;29;20114;-75
2022/01/05 08:12:07;;;;;;;6.78;1.48;;;;;;;1.12;85.07;99021.06;4900429;29;20054;-74
2022/01/05 08:14:32;;;;;;;10.50;1.52;;;;;;;1.17;85.70;99025.81;4917299;29;20114;-75
2022/01/05 08:16:57;;;;;;;8.27;2.28;;;;;;;1.25;85.25;99023.13;4917477;29;20558;-76
2022/01/05 08:19:23;;;;;;;2.77;1.20;;;;;;;1.23;85.18;99033.09;4917028;29;20039;-75
2022/01/05 08:21:48;;;;;;;9.70;2.95;;;;;;;1.23;85.47;99035.75;4917443;29;20042;-74
2022/01/05 08:24:13;;;;;;;5.50;1.58;;;;;;;1.27;86.04;99039.66;4917070;29;20111;-75
2022/01/05 08:26:39;;;;;;;4.60;1.80;;;;;;;1.26;85.32;99024.75;4916972;29;20039;-76
2022/01/05 08:29:04;;;;;;;10.95;1.35;;;;;;;1.30;84.53;99029.50;4916822;29;20333;-75
2022/01/05 08:31:29;;;;;;;12.57;1.90;;;;;;;1.32;84.85;99035.47;4916964;29;20028;-76
2022/01/05 08:33:56;;;;;;;10.97;1.20;;;;;;;1.32;84.83;99022.19;4917444;29;20067;-76
2022/01/05 08:36:23;;;;;;;4.50;2.35;;;;;;;1.37;85.13;99040.25;4916747;29;20336;-75
2022/01/05 08:38:49;;;;;;;6.15;1.60;;;;;;;1.34;85.06;99035.28;4917204;29;20039;-75
2022/01/05 08:41:14;;;;;;;6.65;2.10;;;;;;;1.37;85.12;99040.25;4917103;29;20128;-75
2022/01/05 08:43:40;;;;;;;6.32;1.92;;;;;;;1.41;84.82;99038.88;4916925;29;20032;-76
2022/01/05 08:46:05;;;;;;;6.50;2.10;;;;;;;1.43;84.87;99018.31;4917145;29;20368;-75
2022/01/05 08:48:31;;;;;;;5.70;1.98;;;;;;;1.48;84.88;99023.88;4899664;29;20396;-75
2022/01/05 08:50:56;;;;;;;5.78;1.48;;;;;;;1.53;85.06;99036.63;4916844;29;20132;-76
2022/01/05 08:53:23;;;;;;;13.23;2.03;;;;;;;1.49;84.62;99016.72;4916461;29;20440;-76
2022/01/05 08:55:49;;;;;;;4.72;2.33;;;;;;;1.58;84.80;99024.44;4916652;29;20032;-77
2022/01/05 08:58:15;;;;;;;;;;;;;;;1.59;84.38;99027.94;4916906;29;20076;-75
2022/01/05 09:00:41;;;;;;;9.15;2.45;;;;;;;1.58;84.27;99020.97;4916804;29;19911;-76
2022/01/05 09:03:07;;;;;;;5.63;1.88;;;;;;;1.60;84.77;99027.75;4916954;29;20044;-75
2022/01/05 09:05:34;;;;;;;5.60;1.73;;;;;;;1.59;84.56;99015.50;4916737;29;20051;-75
2022/01/05 09:07:59;;;;;;;19.67;7.07;;;;;;;1.64;84.54;99021.06;4915896;29;20052;-75
2022/01/05 09:10:25;;;;;;;15.18;3.50;;;;;;;1.62;84.28;99015.09;4916266;29;20087;-76
2022/01/05 09:12:50;;;;;;;11.23;1.90;;;;;;;1.63;84.45;99000.00;4916405;29;20040;-76
2022/01/05 09:15:16;;;;;;;7.82;2.45;;;;;;;1.65;84.59;99006.78;4916251;29;20115;-76
2022/01/05 09:17:42;;;;;;;12.10;2.45;;;;;;;1.63;84.40;99026.53;4916452;29;20036;-75
2022/01/05 09:20:07;;;;;;;8.73;2.00;;;;;;;1.66;84.45;99023.53;4916690;29;20032;-75
2022/01/05 09:22:37;;;;;;;7.72;2.30;;;;;;;1.71;83.92;99031.78;4916440;29;20043;-75
2022/01/05 09:25:07;;;;;;;4.50;2.05;;;;;;;1.81;83.99;99042.13;4916312;29;20024;-76
2022/01/05 09:27:33;;;;;;;9.80;2.30;;;;;;;1.85;84.02;99041.56;4899811;29;20096;-74
2022/01/05 09:29:58;;;;;;;8.10;2.40;;;;;;;1.81;84.13;99042.13;4916953;29;20080;-77
2022/01/05 09:32:24;;;;;;;13.65;2.92;;;;;;;1.84;84.04;99031.97;4916376;29;20123;-77
2022/01/05 09:34:50;;;;;;;8.32;3.30;;;;;;;1.87;84.13;99060.81;4916308;29;20356;-75
2022/01/05 09:37:26;;;;;;;6.28;2.75;;;;;;;1.89;83.78;99039.38;4916509;29;20040;-76
2022/01/05 09:42:38;;;;;;;12.20;3.55;;;;;;;1.94;84.00;99044.97;4916190;29;20043;-76
2022/01/05 09:45:19;;;;;;;8.32;3.20;;;;;;;1.97;84.36;99065.88;4916095;29;20111;-76
2022/01/05 09:48:21;;;;;;;7.15;3.17;;;;;;;2.08;84.02;99049.47;4916819;29;20036;-75
2022/01/05 09:50:58;;;;;;;9.65;2.45;;;;;;;2.07;83.72;99047.81;4916356;29;20415;-76
2022/01/05 09:53:24;;;;;;;;;;;;;;;2.10;83.27;99050.09;4917249;29;20044;-76
2022/01/05 09:55:51;;;;;;;12.25;3.90;;;;;;;2.12;83.46;99057.91;4899428;29;19915;-77
2022/01/05 09:58:22;;;;;;;5.22;2.35;;;;;;;2.13;83.78;99038.28;4899660;29;20032;-77
2022/01/05 10:00:48;;;;;;;7.65;2.50;;;;;;;2.16;83.76;99033.41;4916564;29;20052;-76
2022/01/05 10:03:14;;;;;;;6.13;3.10;;;;;;;2.18;83.66;99051.81;4916414;29;20449;-76
2022/01/05 10:05:43;;;;;;;13.93;3.58;;;;;;;2.25;83.04;99050.09;4919467;29;20107;-75
2022/01/05 10:08:09;;;;;;;10.05;2.47;;;;;;;2.28;83.15;99047.06;4902841;29;20044;-76
2022/01/05 10:10:35;;;;;;;9.73;2.45;;;;;;;2.23;83.19;99052.94;4919947;29;20119;-77
2022/01/05 10:13:01;;;;;;;11.43;2.63;;;;;;;2.29;83.80;99049.53;4902518;29;20055;-76
2022/01/05 10:15:27;;;;;;;8.90;2.90;;;;;;;2.30;83.50;99035.25;4919675;29;20047;-77
2022/01/05 10:18:14;;;;;;;5.47;2.10;;;;;;;2.32;84.06;99041.19;4919953;29;20080;-77
2022/01/05 10:20:54;;;;;;;;;;;;;;;2.40;83.57;99058.88;4920646;29;20036;-76
2022/01/05 10:23:37;;;;;;;6.30;2.25;;;;;;;2.36;83.82;99055.75;4919820;29;19914;-76
2022/01/05 10:26:32;;;;;;;11.43;2.50;;;;;;;2.28;84.61;99063.84;4902557;29;20032;-77
2022/01/05 10:29:07;;;;;;;5.38;2.70;;;;;;;2.26;85.30;99047.25;4919852;29;20074;-77
2022/01/05 10:31:38;;;;;;;6.45;2.85;;;;;;;2.19;85.50;99049.00;4919873;29;20032;-76
2022/01/05 10:34:14;;;;;;;6.70;2.90;;;;;;;2.13;86.73;99067.53;4902610;29;20100;-76
2022/01/05 10:36:54;;;;;;;6.50;2.50;;;;;;;2.10;87.18;99066.06;4919470;29;20028;-75
2022/01/05 10:39:28;;;;;;;9.73;2.60;;;;;;;2.04;87.62;99064.13;4919605;29;20467;-77
2022/01/05 10:41:53;;;;;;;6.80;3.10;;;;;;;1.98;88.38;99062.19;4902627;29;20503;-76
2022/01/05 10:44:21;;;;;;;10.38;3.72;;;;;;;1.93;88.39;99072.56;4919735;29;20032;-78
2022/01/05 10:46:48;;;;;;;6.53;2.53;;;;;;;1.88;88.39;99061.66;4919628;29;20099;-76
2022/01/05 10:49:32;;;;;;;11.40;3.00;;;;;;;1.87;88.88;99058.16;4919030;29;20091;-76
2022/01/05 10:52:01;;;;;;;7.80;2.88;;;;;;;1.86;88.80;99064.47;4920067;29;20032;-76
2022/01/05 10:54:30;;;;;;;8.82;2.40;;;;;;;1.89;89.61;99076.56;4901757;29;20036;-76
2022/01/05 10:57:08;;;;;;;7.85;3.55;;;;;;;1.88;89.22;99062.47;4919022;29;20052;-76
2022/01/05 10:59:39;;;;;;;10.35;2.95;;;;;;;1.94;89.39;99066.22;4919048;29;20087;-75
2022/01/05 11:02:34;;;;;;;8.30;3.60;;;;;;;1.95;89.14;99051.94;4919068;29;20062;-76
2022/01/05 11:05:06;;;;;;;5.13;2.55;;;;;;;2.07;89.15;99066.41;4901882;29;20024;-75
2022/01/05 11:07:34;;;;;;;8.60;2.65;;;;;;;2.01;88.90;99054.69;4892509;29;20056;-75
2022/01/05 11:10:02;;;;;;;11.85;2.65;;;;;;;1.97;89.05;99060.56;4900000;29;20060;-75
2022/01/05 11:12:32;;;;;;;7.75;2.20;;;;;;;1.95;89.52;99068.72;4899783;29;20112;-76
2022/01/05 11:15:30;;;;;;;6.90;2.35;;;;;;;2.02;89.67;99074.09;4899438;29;20032;-76
2022/01/05 11:18:14;;;;;;;6.53;2.50;;;;;;;2.01;90.32;99073.28;4899990;29;20495;-77
2022/01/05 11:20:42;;;;;;;8.10;2.78;;;;;;;2.04;90.23;99085.38;4900616;29;20059;-75
2022/01/05 11:23:08;;;;;;;13.55;3.22;;;;;;;2.05;90.70;99084.38;4883095;29;20037;-75
2022/01/05 11:25:38;;;;;;;13.27;3.40;;;;;;;2.03;90.49;99071.25;4900101;29;20843;-76
2022/01/05 11:28:05;;;;;;;6.13;2.15;;;;;;;2.03;90.72;99081.88;4900040;29;20119;-76
2022/01/05 11:30:31;;;;;;;8.65;2.88;;;;;;;1.99;90.51;99074.47;4899743;29;20544;-76
2022/01/05 11:32:56;;;;;;;11.38;2.63;;;;;;;2.07;90.60;99091.16;4899743;29;20064;-77
2022/01/05 11:35:21;;;;;;;10.10;3.10;;;;;;;2.12;90.91;99090.59;4882749;29;20053;-75
2022/01/05 11:37:47;;;;;;;5.60;2.50;;;;;;;2.15;91.42;99086.75;4899843;29;20063;-75
2022/01/05 11:40:13;;;;;;;9.75;3.50;;;;;;;2.22;90.94;99091.16;4900122;29;20044;-77
2022/01/05 11:42:40;;;;;;;15.15;4.80;;;;;;;2.19;90.49;99080.88;4899798;29;20024;-77